createdAt,value
2018-03-19T13:38:22.203Z,0.00
2018-03-19T13:39:22.192Z,0.00
2018-03-19T13:41:15.634Z,0.00
2018-03-19T13:42:15.657Z,0.00
2018-03-19T13:44:09.129Z,0.00
2018-03-19T13:45:09.140Z,0.00
2018-03-19T13:46:09.168Z,0.00
2018-03-19T13:47:09.207Z,0.00
2018-03-19T13:48:09.282Z,0.00
2018-03-19T13:49:09.269Z,0.00
2018-03-19T13:50:09.302Z,0.00
2018-03-19T13:51:09.333Z,0.00
2018-03-19T13:52:09.372Z,0.00
2018-03-19T13:53:09.425Z,0.00
2018-03-19T13:54:09.440Z,0.00
2018-03-19T13:55:09.472Z,0.00
2018-03-19T13:56:09.508Z,0.00
2018-03-19T13:57:09.547Z,0.00
2018-03-19T13:58:51.994Z,19.56
2018-03-19T13:59:51.961Z,19.95
2018-03-19T14:01:45.104Z,19.58
2018-03-19T14:02:45.119Z,19.96
2018-03-19T14:04:44.583Z,0.00
2018-03-19T14:05:52.257Z,0.00
2018-03-19T14:06:52.268Z,0.00
2018-03-19T14:07:52.303Z,0.00
2018-03-19T14:14:01.293Z,19.10
2018-03-19T14:15:01.299Z,19.20
2018-03-19T14:16:01.337Z,19.01
2018-03-19T14:17:01.398Z,19.01
2018-03-19T14:18:01.460Z,18.82
2018-03-19T14:19:01.438Z,19.01
2018-03-19T14:20:01.479Z,19.40
2018-03-19T14:21:01.514Z,18.82
2018-03-19T14:22:01.544Z,18.25
2018-03-19T14:23:14.520Z,18.45
2018-03-19T14:24:14.473Z,18.64
2018-03-19T14:27:31.915Z,18.45
2018-03-19T14:28:31.900Z,18.93
2018-03-19T14:29:31.930Z,18.16
2018-03-19T14:30:31.967Z,18.45
2018-03-19T14:31:32.068Z,18.55
